createdAt,value
2018-12-26T00:01:29.453Z,20.03
2018-12-26T00:06:55.116Z,18.43
2018-12-26T00:09:36.011Z,19.77
2018-12-26T00:15:12.337Z,17.67
2018-12-26T00:17:53.331Z,20.93
2018-12-26T00:23:24.404Z,17.07
2018-12-26T00:31:52.441Z,19.33
2018-12-26T00:37:28.825Z,20.57
2018-12-26T00:40:10.048Z,21.27
2018-12-26T00:42:54.481Z,20.70
2018-12-26T00:45:35.167Z,17.17
2018-12-26T00:51:10.680Z,20.97
2018-12-26T00:53:54.538Z,18.43
2018-12-26T01:02:23.093Z,19.53
2018-12-26T01:05:04.253Z,20.00
2018-12-26T01:07:45.259Z,18.57
2018-12-26T01:16:26.459Z,21.87
2018-12-26T01:19:07.574Z,20.60
2018-12-26T01:24:43.691Z,20.53
2018-12-26T01:27:25.145Z,16.53
2018-12-26T01:30:06.128Z,21.23
2018-12-26T01:32:47.364Z,18.20
2018-12-26T01:35:28.679Z,18.47
2018-12-26T01:38:09.868Z,19.07
2018-12-26T01:43:50.843Z,21.87
2018-12-26T01:46:31.997Z,19.87
2018-12-26T01:52:13.067Z,20.63
2018-12-26T01:54:53.637Z,21.87
2018-12-26T02:03:09.866Z,21.23
2018-12-26T02:05:57.745Z,17.97
2018-12-26T02:09:40.801Z,17.47
2018-12-26T02:11:15.892Z,19.83
2018-12-26T02:16:43.839Z,18.17
2018-12-26T02:22:14.262Z,21.00
2018-12-26T02:30:47.102Z,17.13
2018-12-26T02:36:23.898Z,20.93
2018-12-26T02:39:04.405Z,19.00
2018-12-26T03:02:15.356Z,17.60
2018-12-26T03:04:56.582Z,14.90
2018-12-26T03:07:37.036Z,17.23
2018-12-26T03:41:27.885Z,15.83
2018-12-26T03:52:45.266Z,16.10
2018-12-26T04:01:12.557Z,17.53
2018-12-26T04:03:53.690Z,14.87
2018-12-26T04:06:35.033Z,15.67
2018-12-26T04:15:14.996Z,17.73
2018-12-26T04:23:47.462Z,18.17
2018-12-26T04:29:17.553Z,16.33
2018-12-26T04:34:48.708Z,16.83
2018-12-26T04:43:14.570Z,16.50
2018-12-26T05:03:32.146Z,18.17
2018-12-26T05:11:52.862Z,17.03
2018-12-26T05:23:31.825Z,19.13
2018-12-26T05:31:52.316Z,17.13
2018-12-26T05:37:10.539Z,15.43
2018-12-26T05:52:10.633Z,18.57
2018-12-26T06:06:53.672Z,14.47
2018-12-26T06:09:22.185Z,17.67
2018-12-26T06:18:13.886Z,15.20
2018-12-26T06:35:26.144Z,16.90
2018-12-26T06:38:13.998Z,13.37
2018-12-26T07:24:48.370Z,14.33
2018-12-26T07:36:09.715Z,15.10
2018-12-26T07:38:38.248Z,14.83
2018-12-26T07:41:26.361Z,14.60
2018-12-26T07:52:56.095Z,13.63
2018-12-26T07:55:37.526Z,15.47
2018-12-26T07:58:18.165Z,16.50
2018-12-26T08:06:50.969Z,14.83
2018-12-26T08:09:19.493Z,13.73
2018-12-26T08:12:07.717Z,15.67
2018-12-26T08:29:57.438Z,12.30
2018-12-26T08:32:40.040Z,14.63
2018-12-26T08:35:20.636Z,14.67
2018-12-26T08:37:49.146Z,13.77
2018-12-26T08:40:37.032Z,12.83
2018-12-26T08:43:18.498Z,12.53
2018-12-26T09:00:34.113Z,13.80
2018-12-26T09:03:14.976Z,14.07
2018-12-26T09:05:56.353Z,13.93
2018-12-26T09:08:37.724Z,12.73
2018-12-26T09:11:06.249Z,13.63
2018-12-26T09:13:54.126Z,13.60
2018-12-26T09:16:42.256Z,12.33
2018-12-26T09:19:23.084Z,12.20
2018-12-26T09:22:04.514Z,13.63
2018-12-26T09:24:45.586Z,13.10
2018-12-26T09:30:22.254Z,13.10
2018-12-26T09:33:02.685Z,16.40
2018-12-26T09:35:43.643Z,13.27
2018-12-26T09:38:24.686Z,13.33
2018-12-26T09:41:05.753Z,14.20
2018-12-26T09:46:38.800Z,15.90
2018-12-26T09:49:20.182Z,15.77
2018-12-26T09:52:01.237Z,15.33
2018-12-26T09:54:42.030Z,15.13
2018-12-26T09:57:26.575Z,13.33
2018-12-26T10:00:07.259Z,14.17
2018-12-26T10:02:35.790Z,12.93
2018-12-26T10:08:23.485Z,14.27
2018-12-26T10:14:11.291Z,12.10
2018-12-26T10:16:52.662Z,12.67
2018-12-26T10:19:33.923Z,11.47
2018-12-26T10:22:14.938Z,11.33
2018-12-26T10:24:55.823Z,12.37
2018-12-26T10:27:37.180Z,13.53
2018-12-26T10:30:18.102Z,12.87
2018-12-26T10:32:46.645Z,14.07
2018-12-26T10:35:34.762Z,11.47
2018-12-26T10:38:15.963Z,11.53
2018-12-26T10:40:56.608Z,10.60
2018-12-26T10:43:37.357Z,11.03
2018-12-26T10:46:21.001Z,12.37
2018-12-26T10:49:03.965Z,13.37
2018-12-26T10:51:47.148Z,13.03
2018-12-26T10:54:29.804Z,10.97
2018-12-26T10:57:09.790Z,14.50
2018-12-26T10:59:50.400Z,9.73
2018-12-26T11:05:03.813Z,11.93
2018-12-26T11:10:50.929Z,14.63
2018-12-26T11:13:31.489Z,15.43
2018-12-26T11:16:12.774Z,13.87
2018-12-26T11:18:53.663Z,11.13
2018-12-26T11:21:35.149Z,11.53
2018-12-26T11:27:12.706Z,12.87
2018-12-26T11:29:53.705Z,14.53
2018-12-26T11:32:34.894Z,13.07
2018-12-26T11:35:16.190Z,15.77
2018-12-26T11:37:57.092Z,15.00
2018-12-26T11:40:38.220Z,11.63
2018-12-26T11:43:06.732Z,15.93
2018-12-26T11:45:54.840Z,13.60
2018-12-26T11:51:42.184Z,15.27
2018-12-26T11:54:23.356Z,15.23
2018-12-26T11:57:04.037Z,13.97
2018-12-26T11:59:45.318Z,13.43
2018-12-26T12:02:25.977Z,15.67
2018-12-26T12:05:07.230Z,14.67
2018-12-26T12:07:48.212Z,12.40
2018-12-26T12:10:29.764Z,13.43
2018-12-26T12:13:10.026Z,14.00
2018-12-26T12:15:51.372Z,18.43
2018-12-26T12:18:32.668Z,15.97
2018-12-26T12:21:14.501Z,14.70
2018-12-26T12:23:55.786Z,11.57
2018-12-26T12:26:36.407Z,12.23
2018-12-26T12:29:17.588Z,12.27
2018-12-26T12:31:59.140Z,12.37
2018-12-26T12:34:40.335Z,11.80
2018-12-26T12:37:21.477Z,12.00
2018-12-26T12:40:04.985Z,13.07
2018-12-26T12:42:45.927Z,10.10
2018-12-26T12:45:14.440Z,10.90
2018-12-26T12:48:02.312Z,11.90
2018-12-26T12:50:43.618Z,11.70
2018-12-26T12:53:24.635Z,12.47
2018-12-26T12:56:11.811Z,11.77
2018-12-26T12:58:35.862Z,12.73
2018-12-26T13:01:24.017Z,13.20
2018-12-26T13:04:05.599Z,17.93
2018-12-26T13:06:48.640Z,11.67
2018-12-26T13:09:29.530Z,11.10
2018-12-26T13:12:10.755Z,12.10
2018-12-26T13:14:39.346Z,12.37
2018-12-26T13:17:27.222Z,13.37
2018-12-26T13:20:15.094Z,13.87
2018-12-26T13:22:56.256Z,13.07
2018-12-26T13:25:38.843Z,11.00
2018-12-26T13:28:14.694Z,11.87
2018-12-26T13:31:05.421Z,12.97
2018-12-26T13:33:47.991Z,12.17
2018-12-26T13:39:10.183Z,10.97
2018-12-26T13:41:58.059Z,14.07
2018-12-26T13:44:46.336Z,11.83
2018-12-26T13:47:27.587Z,13.03
2018-12-26T13:50:10.323Z,11.83
2018-12-26T13:52:38.923Z,12.67
2018-12-26T13:58:14.336Z,15.70
2018-12-26T14:01:02.208Z,11.07
2018-12-26T14:03:50.077Z,12.13
2018-12-26T14:06:31.062Z,12.83
2018-12-26T14:09:11.440Z,13.40
2018-12-26T14:11:52.490Z,16.07
2018-12-26T14:14:32.972Z,12.97
2018-12-26T14:17:14.020Z,12.00
2018-12-26T14:19:54.540Z,11.83
2018-12-26T14:22:34.869Z,11.80
2018-12-26T14:25:15.726Z,13.57
2018-12-26T14:27:56.939Z,11.73
2018-12-26T14:30:25.559Z,11.27
2018-12-26T14:32:54.105Z,11.63
2018-12-26T14:35:44.990Z,11.87
2018-12-26T14:38:33.113Z,11.57
2018-12-26T14:41:14.439Z,13.33
2018-12-26T14:43:55.448Z,13.57
2018-12-26T14:46:23.984Z,12.07
2018-12-26T14:49:12.875Z,14.87
2018-12-26T14:55:15.033Z,13.47
2018-12-26T14:57:31.342Z,13.00
2018-12-26T15:00:19.997Z,12.87
2018-12-26T15:03:01.745Z,15.30
2018-12-26T15:05:43.120Z,13.80
2018-12-26T15:08:11.655Z,15.57
2018-12-26T15:10:59.779Z,13.37
2018-12-26T15:13:40.852Z,15.13
2018-12-26T15:16:22.087Z,11.87
2018-12-26T15:19:03.528Z,15.00
2018-12-26T15:21:32.140Z,13.00
2018-12-26T15:27:27.067Z,14.17
2018-12-26T15:30:08.143Z,12.37
2018-12-26T15:32:49.502Z,13.77
2018-12-26T15:35:32.435Z,15.83
2018-12-26T15:38:14.619Z,14.77
2018-12-26T15:40:56.188Z,13.87
2018-12-26T15:43:37.825Z,16.03
2018-12-26T15:46:18.794Z,12.63
2018-12-26T15:49:00.147Z,15.40
2018-12-26T15:51:41.279Z,14.13
2018-12-26T15:54:22.417Z,14.90
2018-12-26T15:59:55.375Z,15.20
2018-12-26T16:08:17.741Z,22.10
2018-12-26T16:10:58.904Z,12.43
2018-12-26T16:13:27.454Z,14.37
2018-12-26T16:16:15.584Z,13.67
2018-12-26T16:18:56.554Z,12.37
2018-12-26T16:21:39.118Z,13.97
2018-12-26T16:24:19.883Z,17.60
2018-12-26T16:27:00.515Z,12.53
2018-12-26T16:29:41.957Z,15.13
2018-12-26T16:32:23.082Z,14.77
2018-12-26T16:35:04.399Z,15.23
2018-12-26T16:37:45.500Z,12.57
2018-12-26T16:40:26.552Z,13.43
2018-12-26T16:43:07.162Z,13.63
2018-12-26T16:45:48.634Z,13.57
2018-12-26T16:48:30.039Z,13.87
2018-12-26T16:51:11.429Z,12.53
2018-12-26T16:53:51.705Z,13.23
2018-12-26T16:56:32.850Z,12.83
2018-12-26T16:59:01.384Z,14.53
2018-12-26T17:01:49.510Z,15.00
2018-12-26T17:04:18.035Z,15.97
2018-12-26T17:07:07.909Z,14.27
2018-12-26T17:09:49.284Z,13.30
2018-12-26T17:12:30.498Z,15.87
2018-12-26T17:15:11.368Z,12.07
2018-12-26T17:17:52.513Z,15.00
2018-12-26T17:20:33.739Z,15.50
2018-12-26T17:23:14.505Z,16.37
2018-12-26T17:25:56.033Z,16.67
2018-12-26T17:28:36.766Z,16.03
2018-12-26T17:31:18.218Z,13.60
2018-12-26T17:36:43.048Z,15.07
2018-12-26T17:39:13.675Z,18.20
2018-12-26T17:44:58.670Z,19.83
2018-12-26T17:47:40.091Z,17.80
2018-12-26T17:50:20.721Z,18.47
2018-12-26T17:52:49.268Z,22.53
2018-12-26T18:02:05.966Z,19.27
2018-12-26T18:04:49.381Z,21.50
2018-12-26T18:10:24.800Z,21.57
2018-12-26T18:13:08.018Z,22.33
2018-12-26T18:18:28.337Z,20.73
2018-12-26T18:21:16.192Z,16.50
2018-12-26T18:23:56.792Z,20.90
2018-12-26T18:26:44.298Z,21.47
2018-12-26T18:32:28.393Z,23.00
2018-12-26T18:35:09.088Z,21.33
2018-12-26T18:37:50.293Z,22.60
2018-12-26T18:40:30.850Z,20.07
2018-12-26T18:43:12.217Z,20.30
2018-12-26T18:52:12.280Z,15.67
2018-12-26T18:54:40.845Z,17.30
2018-12-26T19:00:30.719Z,22.33
2018-12-26T19:06:06.383Z,24.43
2018-12-26T19:11:52.349Z,22.83
2018-12-26T19:14:20.867Z,20.67
2018-12-26T19:17:08.996Z,23.57
2018-12-26T19:19:57.084Z,22.40
2018-12-26T19:25:19.034Z,23.30
2018-12-26T19:28:07.171Z,20.97
2018-12-26T19:30:48.621Z,25.77
2018-12-26T19:33:29.938Z,21.57
2018-12-26T19:36:10.702Z,22.20
2018-12-26T19:38:51.866Z,25.23
2018-12-26T19:41:32.518Z,21.50
2018-12-26T19:44:13.581Z,20.50
2018-12-26T19:46:42.149Z,23.03
2018-12-26T19:49:30.265Z,23.67
2018-12-26T19:52:13.278Z,21.50
2018-12-26T19:54:54.407Z,23.13
2018-12-26T20:00:39.342Z,22.47
2018-12-26T20:03:20.666Z,23.90
2018-12-26T20:05:49.196Z,22.90
2018-12-26T20:08:37.327Z,22.10
2018-12-26T20:11:25.454Z,22.23
2018-12-26T20:14:06.323Z,22.03
2018-12-26T20:16:47.360Z,23.23
2018-12-26T20:19:28.449Z,20.73
2018-12-26T20:22:09.525Z,20.23
2018-12-26T20:24:52.938Z,20.93
2018-12-26T20:27:21.505Z,20.90
2018-12-26T20:30:09.625Z,21.90
2018-12-26T20:32:57.745Z,20.93
2018-12-26T20:35:38.729Z,21.53
2018-12-26T20:44:01.671Z,20.87
2018-12-26T20:46:42.722Z,18.33
2018-12-26T20:49:11.246Z,22.03
2018-12-26T20:51:59.429Z,26.80
2018-12-26T20:54:40.395Z,20.43
2018-12-26T20:57:09.089Z,22.47
2018-12-26T20:59:57.235Z,24.17
2018-12-26T21:02:45.344Z,24.30
2018-12-26T21:05:27.863Z,22.43
2018-12-26T21:10:54.285Z,23.77
2018-12-26T21:13:35.245Z,23.17
2018-12-26T21:16:16.527Z,21.83
2018-12-26T21:18:57.518Z,23.53
2018-12-26T21:21:45.661Z,21.50
2018-12-26T21:24:33.907Z,21.73
2018-12-26T21:27:14.625Z,22.43
2018-12-26T21:29:56.108Z,21.43
2018-12-26T21:32:37.374Z,19.93
2018-12-26T21:35:18.859Z,19.53
2018-12-26T21:37:47.398Z,25.63
2018-12-26T21:40:35.521Z,34.50
2018-12-26T21:43:23.669Z,25.23
2018-12-26T21:46:05.138Z,28.53
2018-12-26T21:48:46.271Z,25.93
2018-12-26T21:51:27.319Z,20.90
2018-12-26T21:54:09.011Z,20.13
2018-12-26T21:56:50.040Z,21.40
2018-12-26T21:59:18.599Z,23.07
2018-12-26T22:02:06.727Z,23.27
2018-12-26T22:04:54.871Z,25.27
2018-12-26T22:07:36.146Z,22.47
2018-12-26T22:10:17.486Z,21.03
2018-12-26T22:13:00.513Z,22.37
2018-12-26T22:15:41.408Z,20.90
2018-12-26T22:18:22.345Z,21.83
2018-12-26T22:21:03.568Z,21.43
2018-12-26T22:23:45.046Z,21.07
2018-12-26T22:26:26.197Z,21.10
2018-12-26T22:29:07.566Z,20.07
2018-12-26T22:31:36.209Z,22.23
2018-12-26T22:34:24.325Z,21.53
2018-12-26T22:37:05.602Z,19.73
2018-12-26T22:39:34.149Z,20.90
2018-12-26T22:42:22.281Z,21.33
2018-12-26T22:45:10.160Z,21.00
2018-12-26T22:47:51.176Z,23.70
2018-12-26T22:50:19.743Z,20.17
2018-12-26T22:55:43.314Z,20.10
2018-12-26T22:58:11.831Z,19.27
2018-12-26T23:01:00.042Z,24.90
2018-12-26T23:03:48.226Z,25.83
2018-12-26T23:06:28.963Z,20.43
2018-12-26T23:09:10.272Z,21.87
2018-12-26T23:11:38.847Z,21.83
2018-12-26T23:14:07.402Z,20.20
2018-12-26T23:16:55.314Z,20.47
2018-12-26T23:19:23.854Z,17.83
2018-12-26T23:22:12.009Z,20.13
2018-12-26T23:24:40.635Z,20.40
2018-12-26T23:27:09.265Z,20.63
2018-12-26T23:29:57.410Z,18.17
2018-12-26T23:32:46.743Z,19.03
2018-12-26T23:35:21.880Z,19.27
2018-12-26T23:37:50.612Z,20.60
2018-12-26T23:40:19.250Z,15.80
2018-12-26T23:43:07.209Z,19.20
2018-12-26T23:48:43.050Z,19.33
2018-12-26T23:51:24.231Z,18.40
2018-12-26T23:54:06.017Z,18.87
2018-12-26T23:56:34.607Z,20.60
